Time;durP1;ratioP1;P1;durP2;ratioP2;P2;SDS_P1;SDS_P2;PMS_P1;PMS_P2;Temp;Humidity;BMP_temperature;BMP_pressure;BME280_temperature;BME280_humidity;BME280_pressure;Samples;Min_cycle;Max_cycle;Signal;HPM_P1;HPM_P2
2022/04/24 13:58:15;;;;;;;7.53;5.47;;;20.10;45.60;;;;;;6209997;22;884687;-57
2022/04/24 14:00:44;;;;;;;4.23;3.47;;;19.90;46.30;;;;;;6295947;22;20448;-55
2022/04/24 14:03:13;;;;;;;4.70;3.43;;;19.80;47.20;;;;;;6302500;22;20425;-52
2022/04/24 14:05:45;;;;;;;4.47;3.27;;;19.80;47.60;;;;;;6302160;22;20402;-57
2022/04/24 14:08:15;;;;;;;4.40;3.60;;;20.00;47.70;;;;;;6302533;22;20391;-56
2022/04/24 14:10:42;;;;;;;4.20;3.50;;;20.10;47.80;;;;;;6302156;22;20420;-54
2022/04/24 14:13:09;;;;;;;3.83;3.37;;;20.30;47.80;;;;;;6302632;22;20402;-56
2022/04/24 14:15:37;;;;;;;6.10;3.53;;;20.40;46.90;;;;;;6302551;22;20397;-54
2022/04/24 14:18:09;;;;;;;4.33;3.93;;;20.40;46.90;;;;;;6302399;22;20398;-56
2022/04/24 14:20:35;;;;;;;4.63;4.13;;;20.30;47.20;;;;;;6302435;22;20437;-50
2022/04/24 14:23:03;;;;;;;4.77;3.47;;;20.10;46.40;;;;;;6303324;22;20401;-55
2022/04/24 14:25:30;;;;;;;4.53;4.17;;;19.90;46.80;;;;;;6303088;22;20417;-60
2022/04/24 14:27:57;;;;;;;4.90;3.73;;;19.70;47.00;;;;;;6303510;22;20402;-52
2022/04/24 14:30:24;;;;;;;4.63;2.77;;;19.60;47.40;;;;;;6303231;22;20414;-52
2022/04/24 14:32:52;;;;;;;3.37;3.00;;;19.40;47.20;;;;;;6302199;22;20398;-54
2022/04/24 14:35:22;;;;;;;3.50;3.20;;;19.30;47.50;;;;;;6302046;22;20450;-55
2022/04/24 14:37:51;;;;;;;3.50;3.20;;;19.30;47.50;;;;;;6301983;22;20433;-56
2022/04/24 14:40:19;;;;;;;6.00;3.37;;;19.20;47.70;;;;;;6301363;22;20454;-60
2022/04/24 14:42:46;;;;;;;4.07;3.10;;;19.20;48.10;;;;;;6301734;22;20402;-60
2022/04/24 14:45:12;;;;;;;3.40;3.10;;;19.10;48.20;;;;;;6302394;22;20421;-55
2022/04/24 14:55:54;;;;;;;4.80;2.93;;;18.90;48.20;;;;;;6301044;22;20444;-54
2022/04/24 14:58:26;;;;;;;3.10;2.73;;;18.90;48.30;;;;;;6301609;22;20463;-53
2022/04/24 15:00:53;;;;;;;6.10;3.50;;;18.80;48.40;;;;;;6301330;22;20446;-55
2022/04/24 15:03:19;;;;;;;4.53;2.97;;;18.80;48.60;;;;;;6301815;22;20398;-57
2022/04/24 15:05:48;;;;;;;7.03;3.70;;;18.80;48.70;;;;;;6300095;22;20422;-50
2022/04/24 15:08:17;;;;;;;4.00;3.33;;;18.80;48.40;;;;;;6300537;22;20389;-54
2022/04/24 15:10:46;;;;;;;5.60;3.20;;;18.70;48.30;;;;;;6301145;22;20430;-54
2022/04/24 15:13:20;;;;;;;3.33;3.03;;;18.70;48.50;;;;;;6301269;22;20382;-55
2022/04/24 15:15:46;;;;;;;9.83;3.60;;;18.70;48.30;;;;;;6301630;22;20417;-54
2022/04/24 15:18:13;;;;;;;3.40;3.10;;;18.60;48.20;;;;;;6301725;22;20390;-54
2022/04/24 15:20:40;;;;;;;4.90;3.40;;;18.60;48.20;;;;;;6301108;22;20468;-54
2022/04/24 15:23:08;;;;;;;6.13;3.20;;;18.60;48.60;;;;;;6300826;22;20422;-56
2022/04/24 15:25:38;;;;;;;4.00;3.17;;;18.50;48.80;;;;;;6301326;22;20386;-63
2022/04/24 15:28:05;;;;;;;4.80;2.80;;;18.50;48.70;;;;;;6301623;22;20453;-56
2022/04/24 15:30:32;;;;;;;4.33;3.03;;;18.30;49.10;;;;;;6302212;22;20469;-54
2022/04/24 15:33:00;;;;;;;6.47;4.70;;;18.30;49.80;;;;;;6302332;22;20406;-55
2022/04/24 15:35:28;;;;;;;4.47;3.37;;;18.20;50.30;;;;;;6302049;22;20517;-53
2022/04/24 15:37:55;;;;;;;4.90;4.03;;;18.20;50.00;;;;;;6301791;22;20423;-52
2022/04/24 15:40:28;;;;;;;5.00;3.40;;;18.10;50.40;;;;;;6301784;22;20444;-53
2022/04/24 15:42:55;;;;;;;5.40;3.53;;;18.00;50.10;;;;;;6289998;22;20441;-52
2022/04/24 15:45:24;;;;;;;4.07;3.20;;;18.00;50.20;;;;;;6285935;22;20417;-57
2022/04/24 15:47:51;;;;;;;4.47;3.00;;;18.00;50.40;;;;;;6285824;22;21059;-57
2022/04/24 15:50:26;;;;;;;3.80;3.20;;;18.00;50.20;;;;;;6286362;22;20485;-56
2022/04/24 15:52:54;;;;;;;3.60;3.30;;;17.90;50.40;;;;;;6284779;22;20430;-54
2022/04/24 15:55:26;;;;;;;10.40;6.63;;;17.90;50.40;;;;;;6285949;22;20417;-51
2022/04/24 15:57:55;;;;;;;5.17;3.70;;;17.80;50.70;;;;;;6285707;22;20421;-54
2022/04/24 16:00:22;;;;;;;4.77;3.60;;;17.70;51.00;;;;;;6285500;22;20977;-54
2022/04/24 16:02:51;;;;;;;8.43;4.27;;;17.60;51.50;;;;;;6286015;22;20426;-57
2022/04/24 16:05:18;;;;;;;3.13;2.80;;;17.60;52.00;;;;;;6285638;22;20425;-57
2022/04/24 16:07:48;;;;;;;3.53;3.23;;;17.50;52.10;;;;;;6284982;22;20432;-55
2022/04/24 16:10:15;;;;;;;7.00;3.63;;;17.50;52.50;;;;;;6300665;22;20387;-57
2022/04/24 16:12:43;;;;;;;4.13;3.50;;;17.40;53.40;;;;;;6302003;22;20421;-54
2022/04/24 16:15:17;;;;;;;7.40;4.10;;;17.40;53.60;;;;;;6301507;22;20466;-58
2022/04/24 16:17:44;;;;;;;4.30;3.50;;;17.40;54.60;;;;;;6302121;22;20824;-56
2022/04/24 16:20:12;;;;;;;8.53;4.33;;;17.30;57.50;;;;;;6301760;22;20444;-52
2022/04/24 16:22:39;;;;;;;12.27;3.60;;;17.30;59.40;;;;;;6301278;22;20412;-55
2022/04/24 16:25:07;;;;;;;30.20;16.87;;;17.20;60.40;;;;;;6301166;22;20776;-55
2022/04/24 16:27:34;;;;;;;7.60;5.80;;;17.10;61.20;;;;;;6301210;22;20439;-59
2022/04/24 16:30:04;;;;;;;6.20;4.40;;;17.00;63.90;;;;;;6300816;22;20425;-58
2022/04/24 16:32:32;;;;;;;6.30;4.30;;;16.90;63.70;;;;;;6301096;22;20386;-56
2022/04/24 16:35:04;;;;;;;9.40;4.90;;;16.90;64.70;;;;;;6300818;22;20426;-58
2022/04/24 16:37:31;;;;;;;10.23;5.63;;;16.80;66.70;;;;;;6301568;22;20407;-58
2022/04/24 16:39:57;;;;;;;16.63;9.87;;;16.70;66.80;;;;;;6299682;22;20432;-60
2022/04/24 16:42:24;;;;;;;5.60;4.13;;;16.60;67.80;;;;;;6300473;22;20394;-57
2022/04/24 16:44:51;;;;;;;7.00;4.13;;;16.50;69.20;;;;;;6300687;22;20432;-61
2022/04/24 16:47:21;;;;;;;19.10;8.43;;;16.50;71.70;;;;;;6301054;22;20429;-58
2022/04/24 16:49:48;;;;;;;6.50;4.60;;;16.50;75.30;;;;;;6301051;22;20417;-59
2022/04/24 17:00:39;;;;;;;8.97;5.13;;;16.20;96.70;;;;;;6301489;22;20449;-58
2022/04/24 17:03:10;;;;;;;15.80;6.97;;;16.10;99.60;;;;;;6301617;22;20434;-55
2022/04/24 17:05:39;;;;;;;11.40;5.53;;;16.10;99.90;;;;;;6301810;22;20497;-54
2022/04/24 17:08:06;;;;;;;10.43;5.60;;;16.00;99.90;;;;;;6301646;22;20418;-56
2022/04/24 17:10:34;;;;;;;15.87;8.07;;;16.00;99.90;;;;;;6301140;22;20418;-58
2022/04/24 17:13:02;;;;;;;10.60;6.53;;;16.00;99.90;;;;;;6301663;22;20414;-57
2022/04/24 17:15:29;;;;;;;14.80;6.50;;;16.00;99.90;;;;;;6301340;22;20426;-58
2022/04/24 17:17:56;;;;;;;15.57;7.53;;;15.90;99.90;;;;;;6300573;22;20400;-56
2022/04/24 17:20:24;;;;;;;12.97;6.87;;;15.90;99.90;;;;;;6300636;22;20442;-56
2022/04/24 17:22:51;;;;;;;10.57;7.40;;;15.90;99.90;;;;;;6301145;22;20386;-61
2022/04/24 17:25:18;;;;;;;10.70;5.87;;;15.90;99.90;;;;;;6300619;22;20482;-54
2022/04/24 17:27:45;;;;;;;11.90;6.00;;;15.90;99.90;;;;;;6301481;22;20402;-58
2022/04/24 17:30:12;;;;;;;8.00;5.63;;;15.80;99.90;;;;;;6302363;22;20425;-57
2022/04/24 17:32:40;;;;;;;10.70;5.80;;;15.80;99.90;;;;;;6301674;22;20406;-57
2022/04/24 17:35:07;;;;;;;11.17;6.17;;;15.70;99.90;;;;;;6300251;22;20962;-54
2022/04/24 17:37:38;;;;;;;11.73;5.43;;;15.70;99.90;;;;;;6301277;22;20398;-56
2022/04/24 17:40:06;;;;;;;8.20;5.87;;;15.70;99.90;;;;;;6297743;22;20393;-58
2022/04/24 17:42:34;;;;;;;7.60;5.23;;;15.60;99.90;;;;;;6301403;22;20452;-57
2022/04/24 17:45:01;;;;;;;11.20;6.10;;;15.60;99.90;;;;;;6299516;22;20390;-57
2022/04/24 17:47:28;;;;;;;10.60;5.90;;;15.60;99.90;;;;;;6295697;22;20413;-57
2022/04/24 17:49:55;;;;;;;12.00;6.07;;;15.60;99.90;;;;;;6301017;22;20394;-57
2022/04/24 17:52:22;;;;;;;9.97;5.27;;;15.50;99.90;;;;;;6299266;22;20433;-54
2022/04/24 17:54:53;;;;;;;6.33;5.40;;;15.50;99.90;;;;;;6300751;22;20398;-54
2022/04/24 17:57:19;;;;;;;7.60;5.90;;;15.50;99.90;;;;;;6301372;22;20430;-56
2022/04/24 17:59:47;;;;;;;14.43;5.57;;;15.40;99.90;;;;;;6299927;22;20420;-60
2022/04/24 18:02:14;;;;;;;9.97;5.77;;;15.40;99.90;;;;;;6300155;22;20446;-52
2022/04/24 18:04:41;;;;;;;10.00;6.43;;;15.30;99.90;;;;;;6299197;22;20403;-57
2022/04/24 18:07:11;;;;;;;13.60;5.63;;;15.20;99.90;;;;;;6288180;22;20414;-54
2022/04/24 18:09:38;;;;;;;7.70;5.33;;;15.20;99.90;;;;;;6300210;22;20474;-55
2022/04/24 18:12:08;;;;;;;7.30;5.80;;;15.20;99.90;;;;;;6299500;22;20430;-55
2022/04/24 18:14:45;;;;;;;12.80;4.70;;;15.10;99.90;;;;;;6300438;22;20382;-57
2022/04/24 18:17:12;;;;;;;10.57;5.57;;;15.10;99.90;;;;;;6300251;22;20397;-55
2022/04/24 18:19:39;;;;;;;7.77;5.20;;;15.10;99.90;;;;;;6299808;22;20402;-58
2022/04/24 18:22:05;;;;;;;9.23;5.90;;;15.00;99.90;;;;;;6299645;22;20533;-54
2022/04/24 18:24:34;;;;;;;10.20;6.10;;;15.00;99.90;;;;;;6299870;22;20424;-55
2022/04/24 18:27:01;;;;;;;12.73;6.03;;;15.00;99.90;;;;;;6300121;22;20421;-57
2022/04/24 18:29:29;;;;;;;12.03;5.97;;;14.90;99.90;;;;;;6299610;22;20428;-50
2022/04/24 18:31:56;;;;;;;10.53;6.90;;;14.90;99.90;;;;;;6299630;22;20390;-52
2022/04/24 18:34:25;;;;;;;8.93;5.43;;;14.90;99.90;;;;;;6300189;22;20436;-56
2022/04/24 18:39:38;;;;;;;9.47;5.07;;;14.80;99.90;;;;;;6302205;22;20428;-58
2022/04/24 18:42:05;;;;;;;11.67;6.20;;;14.80;99.90;;;;;;6301898;22;20432;-56
2022/04/24 18:44:33;;;;;;;7.73;5.00;;;14.80;99.90;;;;;;6301636;22;20429;-57
2022/04/24 18:47:01;;;;;;;6.40;4.60;;;14.80;99.90;;;;;;6301372;22;20398;-53
2022/04/24 18:49:28;;;;;;;8.90;5.57;;;14.70;99.90;;;;;;6300859;22;20406;-54
2022/04/24 18:51:55;;;;;;;9.10;5.27;;;14.70;99.90;;;;;;6301359;22;20441;-55
2022/04/24 18:54:24;;;;;;;6.70;5.10;;;14.70;99.90;;;;;;6300909;22;20430;-58
2022/04/24 18:56:51;;;;;;;6.63;4.73;;;14.70;99.90;;;;;;6301410;22;20417;-57
2022/04/24 18:59:18;;;;;;;8.27;4.13;;;14.60;99.90;;;;;;6301171;22;20464;-59
2022/04/24 19:01:46;;;;;;;6.03;4.20;;;14.60;99.90;;;;;;6300999;22;20442;-58
2022/04/24 19:12:35;;;;;;;9.80;6.37;;;14.50;99.90;;;;;;6212900;22;20424;-58
2022/04/24 19:15:02;;;;;;;12.33;6.27;;;14.50;99.90;;;;;;6301762;22;20414;-58
2022/04/24 19:17:30;;;;;;;9.70;5.80;;;14.50;99.90;;;;;;6301758;22;20385;-56
2022/04/24 19:19:57;;;;;;;12.77;5.67;;;14.40;99.90;;;;;;6302254;22;20434;-42
2022/04/24 19:22:24;;;;;;;7.30;4.73;;;14.40;99.90;;;;;;6303288;22;20445;-39
2022/04/24 19:24:50;;;;;;;7.73;5.00;;;14.30;99.90;;;;;;6302781;22;20402;-41
2022/04/24 19:27:17;;;;;;;9.03;4.13;;;14.40;99.90;;;;;;6303121;22;20440;-40
2022/04/24 19:29:44;;;;;;;8.93;4.80;;;14.30;99.90;;;;;;6302666;22;20418;-46
2022/04/24 19:32:11;;;;;;;10.90;6.00;;;14.30;99.90;;;;;;6303572;22;20397;-38
2022/04/24 19:34:40;;;;;;;8.90;4.70;;;14.20;99.90;;;;;;6302831;22;20440;-40
2022/04/24 19:37:07;;;;;;;5.53;4.80;;;14.10;99.90;;;;;;6303555;22;20452;-42
2022/04/24 19:39:34;;;;;;;7.73;4.80;;;14.00;99.90;;;;;;6303275;22;20406;-41
2022/04/24 19:42:01;;;;;;;10.33;5.37;;;13.90;99.90;;;;;;6303400;22;20434;-38
2022/04/24 19:44:29;;;;;;;7.90;5.00;;;13.80;99.90;;;;;;6302686;22;20402;-41
2022/04/24 19:46:56;;;;;;;9.80;4.97;;;13.80;99.90;;;;;;6302913;22;20412;-41
2022/04/24 19:49:22;;;;;;;8.50;4.73;;;13.80;99.90;;;;;;6302605;22;20422;-39
2022/04/24 19:51:55;;;;;;;13.40;4.67;;;13.70;99.90;;;;;;6302368;22;20410;-41
2022/04/24 19:54:22;;;;;;;8.27;4.43;;;13.70;99.90;;;;;;6303007;22;20176;-49
2022/04/24 19:56:51;;;;;;;15.53;6.13;;;13.60;99.90;;;;;;6302520;22;20417;-40
2022/04/24 19:59:18;;;;;;;11.23;5.13;;;13.50;99.90;;;;;;6303013;22;20378;-36
2022/04/24 20:01:46;;;;;;;11.37;4.93;;;13.50;99.90;;;;;;6302574;22;20436;-39
2022/04/24 20:04:12;;;;;;;14.03;5.30;;;13.50;99.90;;;;;;6302621;22;20398;-38
2022/04/24 20:06:39;;;;;;;6.33;4.13;;;13.40;99.90;;;;;;6303182;22;20456;-37
2022/04/24 20:09:10;;;;;;;7.67;5.27;;;13.40;99.90;;;;;;6302521;22;20434;-40
2022/04/24 20:11:37;;;;;;;7.73;4.97;;;13.30;99.90;;;;;;6301731;22;20410;-38
2022/04/24 20:14:05;;;;;;;7.83;5.77;;;13.20;99.90;;;;;;6301995;22;20398;-40
2022/04/24 20:16:32;;;;;;;9.87;4.70;;;13.20;99.90;;;;;;6302343;22;20426;-41
2022/04/24 20:18:58;;;;;;;6.53;4.47;;;13.10;99.90;;;;;;6301720;22;20425;-38
2022/04/24 20:21:25;;;;;;;12.07;5.10;;;13.10;99.90;;;;;;6302189;22;20446;-47
2022/04/24 20:23:52;;;;;;;8.10;5.57;;;13.00;99.90;;;;;;6302162;22;20451;-38
2022/04/24 20:26:22;;;;;;;9.07;5.33;;;12.90;99.90;;;;;;6301795;22;20410;-40
2022/04/24 20:28:49;;;;;;;7.70;5.37;;;12.90;99.90;;;;;;6302277;22;20500;-40
2022/04/24 20:31:17;;;;;;;14.83;5.30;;;12.80;99.90;;;;;;6302070;22;20441;-37
2022/04/24 20:33:46;;;;;;;9.33;4.07;;;12.70;99.90;;;;;;6302861;22;20428;-36
2022/04/24 20:36:13;;;;;;;13.00;5.00;;;12.60;99.90;;;;;;6302753;22;20482;-40
2022/04/24 20:38:41;;;;;;;13.73;4.70;;;12.50;99.90;;;;;;6302339;22;20398;-38
2022/04/24 20:41:08;;;;;;;11.57;5.37;;;12.40;99.90;;;;;;6302014;22;20429;-41
2022/04/24 20:43:36;;;;;;;10.80;4.50;;;12.40;99.90;;;;;;6302457;22;20405;-39
2022/04/24 20:46:04;;;;;;;8.63;5.57;;;12.30;99.90;;;;;;6302170;22;20390;-40
2022/04/24 20:48:30;;;;;;;7.87;4.90;;;12.30;99.90;;;;;;6302273;22;20461;-40
2022/04/24 20:50:57;;;;;;;9.73;5.00;;;12.20;99.90;;;;;;6302453;22;20387;-44
2022/04/24 20:53:24;;;;;;;7.10;4.50;;;12.20;99.90;;;;;;6301915;22;20414;-42
2022/04/24 20:55:51;;;;;;;12.27;4.70;;;12.10;99.90;;;;;;6302530;22;20588;-42
2022/04/24 20:58:17;;;;;;;7.53;5.27;;;12.10;99.90;;;;;;6302010;22;20412;-39
2022/04/24 21:00:48;;;;;;;9.07;5.30;;;12.00;99.90;;;;;;6302310;22;20432;-37
2022/04/24 21:03:16;;;;;;;5.83;4.63;;;12.00;99.90;;;;;;6302675;22;20537;-39
2022/04/24 21:05:42;;;;;;;6.53;3.87;;;12.00;99.90;;;;;;6302704;22;20565;-38
2022/04/24 21:08:09;;;;;;;7.87;5.13;;;11.90;99.90;;;;;;6302708;22;20489;-34
2022/04/24 21:10:36;;;;;;;7.90;5.60;;;11.90;99.90;;;;;;6302626;22;20398;-37
2022/04/24 21:13:03;;;;;;;10.43;5.47;;;11.90;99.90;;;;;;6302397;22;20417;-39
2022/04/24 21:15:30;;;;;;;7.20;4.27;;;11.80;99.90;;;;;;6302774;22;20386;-38
2022/04/24 21:17:58;;;;;;;10.00;3.30;;;11.70;99.90;;;;;;6302650;22;20432;-39
2022/04/24 21:20:25;;;;;;;14.07;5.30;;;11.70;99.90;;;;;;6302676;22;20393;-38
2022/04/24 21:22:52;;;;;;;9.27;4.80;;;11.60;99.90;;;;;;6302158;22;20510;-38
2022/04/24 21:25:19;;;;;;;9.10;5.23;;;11.50;99.90;;;;;;6302768;22;20367;-42
2022/04/24 21:27:46;;;;;;;6.50;4.70;;;11.50;99.90;;;;;;6301922;22;20381;-39
2022/04/24 21:30:13;;;;;;;7.27;5.50;;;11.50;99.90;;;;;;6303040;22;20394;-40
2022/04/24 21:32:39;;;;;;;10.03;5.23;;;11.50;99.90;;;;;;6302581;22;20412;-40
2022/04/24 21:35:08;;;;;;;14.37;4.70;;;11.50;99.90;;;;;;6302878;22;20403;-39
2022/04/24 21:37:34;;;;;;;5.93;4.60;;;11.40;99.90;;;;;;6302617;22;20434;-37
2022/04/24 21:40:01;;;;;;;14.73;5.93;;;11.30;99.90;;;;;;6302650;22;20426;-38
2022/04/24 21:42:28;;;;;;;10.50;4.83;;;11.20;99.90;;;;;;6302523;22;20467;-38
2022/04/24 21:44:54;;;;;;;10.43;5.37;;;11.10;99.90;;;;;;6302675;22;20426;-36
2022/04/24 21:47:21;;;;;;;6.80;4.40;;;11.10;99.90;;;;;;6301915;22;20445;-41
2022/04/24 21:49:48;;;;;;;8.07;5.30;;;11.00;99.90;;;;;;6302325;22;20422;-36
2022/04/24 21:52:16;;;;;;;10.07;5.00;;;11.00;99.90;;;;;;6302464;22;20458;-40
2022/04/24 21:54:42;;;;;;;16.47;5.50;;;10.90;99.90;;;;;;6302501;22;20536;-39
2022/04/24 21:57:09;;;;;;;8.43;4.63;;;10.80;99.90;;;;;;6302457;22;20394;-37
2022/04/24 21:59:36;;;;;;;11.10;5.17;;;10.70;99.90;;;;;;6302023;22;20402;-41
2022/04/24 22:04:47;;;;;;;7.73;5.30;;;10.60;99.90;;;;;;6302608;22;20417;-41
2022/04/24 22:07:13;;;;;;;11.00;5.40;;;10.60;99.90;;;;;;6302642;22;20412;-43
2022/04/24 22:09:42;;;;;;;8.83;4.97;;;10.60;99.90;;;;;;6302080;22;20406;-39
2022/04/24 22:12:10;;;;;;;12.50;5.87;;;10.60;99.90;;;;;;6303302;22;20406;-39
2022/04/24 22:14:36;;;;;;;11.57;5.43;;;10.50;99.90;;;;;;6304483;22;20440;-37
2022/04/24 22:17:03;;;;;;;9.10;6.23;;;10.40;99.90;;;;;;6303853;22;20469;-38
2022/04/24 22:19:30;;;;;;;13.13;5.87;;;10.40;99.90;;;;;;6303976;22;20437;-38
2022/04/24 22:24:43;;;;;;;11.00;5.77;;;10.30;99.90;;;;;;6303991;22;20354;-40
2022/04/24 22:27:09;;;;;;;11.50;6.20;;;10.30;99.90;;;;;;6304735;22;20407;-37
2022/04/24 22:29:37;;;;;;;12.23;5.80;;;10.30;99.90;;;;;;6303317;22;20916;-38
2022/04/24 22:32:05;;;;;;;8.70;7.60;;;10.30;99.90;;;;;;6303886;22;20418;-39
2022/04/24 22:34:33;;;;;;;7.00;5.33;;;10.30;99.90;;;;;;6304121;22;20406;-35
2022/04/24 22:37:01;;;;;;;11.47;6.10;;;10.30;99.90;;;;;;6304386;22;20437;-40
2022/04/24 22:39:27;;;;;;;12.63;6.50;;;10.30;99.90;;;;;;6303112;22;20405;-39
2022/04/24 22:41:56;;;;;;;7.80;5.43;;;10.30;99.90;;;;;;6303704;22;20426;-40
2022/04/24 22:44:24;;;;;;;13.53;6.00;;;10.30;99.90;;;;;;6303326;22;20399;-46
2022/04/24 22:46:51;;;;;;;10.17;6.33;;;10.30;99.90;;;;;;6303282;22;20426;-37
2022/04/24 22:49:17;;;;;;;8.63;6.93;;;10.20;99.90;;;;;;6303938;22;20424;-39
2022/04/24 22:51:44;;;;;;;14.87;6.57;;;10.10;99.90;;;;;;6303339;22;20468;-39
2022/04/24 22:54:11;;;;;;;10.70;5.93;;;10.00;99.90;;;;;;6303500;22;20434;-40
2022/04/24 22:56:38;;;;;;;7.80;5.30;;;10.00;99.90;;;;;;6302813;22;20429;-41
2022/04/24 22:59:06;;;;;;;12.70;5.80;;;10.00;99.90;;;;;;6303510;22;20458;-40
2022/04/24 23:01:34;;;;;;;9.80;6.13;;;10.00;99.90;;;;;;6304108;22;20406;-40
2022/04/24 23:04:01;;;;;;;10.43;6.03;;;10.00;99.90;;;;;;6303400;22;20438;-39
2022/04/24 23:06:27;;;;;;;11.33;7.60;;;10.00;99.90;;;;;;6303593;22;20402;-39
2022/04/24 23:08:54;;;;;;;7.07;5.40;;;9.90;99.90;;;;;;6303709;22;20459;-34
2022/04/24 23:11:21;;;;;;;10.60;6.10;;;9.90;99.90;;;;;;6303441;22;20402;-38
2022/04/24 23:13:48;;;;;;;9.90;5.97;;;9.90;99.90;;;;;;6303760;22;20444;-40
2022/04/24 23:16:16;;;;;;;11.30;5.40;;;9.90;99.90;;;;;;6304014;22;20398;-40
2022/04/24 23:24:11;;;;;;;11.70;5.90;;;9.80;99.90;;;;;;6303519;22;20497;-36
2022/04/24 23:26:38;;;;;;;8.00;5.63;;;9.70;99.90;;;;;;6303603;22;20408;-37
2022/04/24 23:29:05;;;;;;;12.00;6.27;;;9.60;99.90;;;;;;6303989;22;20406;-37
2022/04/24 23:31:33;;;;;;;11.20;5.73;;;9.60;99.90;;;;;;6303297;22;20459;-37
2022/04/24 23:34:00;;;;;;;14.40;6.90;;;9.60;99.90;;;;;;6303424;22;20486;-37
2022/04/24 23:36:27;;;;;;;9.37;5.83;;;9.60;99.90;;;;;;6302561;22;20477;-38
2022/04/24 23:38:54;;;;;;;12.73;7.77;;;9.70;99.90;;;;;;6302046;22;20406;-41
2022/04/24 23:41:20;;;;;;;10.50;6.10;;;9.60;99.90;;;;;;6302368;22;20418;-38
2022/04/24 23:43:47;;;;;;;11.90;7.27;;;9.60;99.90;;;;;;6302182;22;20450;-39
2022/04/24 23:46:18;;;;;;;11.40;6.27;;;9.60;99.90;;;;;;6301690;22;20394;-39
2022/04/24 23:48:46;;;;;;;11.20;6.20;;;9.50;99.90;;;;;;6300444;22;20449;-34
2022/04/24 23:51:12;;;;;;;9.83;6.60;;;9.50;99.90;;;;;;6300445;22;20406;-37
2022/04/24 23:53:39;;;;;;;12.37;6.30;;;9.40;99.90;;;;;;6300593;22;20425;-37
2022/04/24 23:56:06;;;;;;;14.27;7.23;;;9.40;99.90;;;;;;6300883;22;20417;-35
2022/04/24 23:58:33;;;;;;;9.07;5.53;;;9.50;99.90;;;;;;6300790;22;20432;-36
